Time;durP1;ratioP1;P1;durP2;ratioP2;P2;SDS_P1;SDS_P2;PMS_P1;PMS_P2;Temp;Humidity;BMP_temperature;BMP_pressure;BME280_temperature;BME280_humidity;BME280_pressure;Samples;Min_cycle;Max_cycle;Signal;HPM_P1;HPM_P2
2023/07/26 00:00:08;;;;;;;5.90;0.73;;;14.50;99.90;;;;;;4961481;28;20192;-80
2023/07/26 00:02:33;;;;;;;5.30;1.53;;;14.50;99.90;;;;;;4962868;28;20764;-81
2023/07/26 00:04:59;;;;;;;2.23;0.67;;;14.50;99.90;;;;;;4963640;28;20299;-81
2023/07/26 00:07:25;;;;;;;0.30;0.30;;;14.50;99.90;;;;;;4960285;28;20312;-81
2023/07/26 00:09:51;;;;;;;1.13;0.60;;;14.30;99.90;;;;;;4961951;28;20255;-81
2023/07/26 00:12:16;;;;;;;1.20;1.10;;;14.30;99.90;;;;;;4962243;28;20197;-82
2023/07/26 00:14:42;;;;;;;1.43;0.80;;;14.30;99.90;;;;;;4962243;28;20185;-81
2023/07/26 00:17:08;;;;;;;2.27;1.00;;;14.30;99.90;;;;;;4963700;28;20220;-81
2023/07/26 00:19:34;;;;;;;0.93;0.67;;;14.30;99.90;;;;;;4961642;28;20224;-81
2023/07/26 00:21:59;;;;;;;0.90;0.70;;;14.20;99.90;;;;;;4947861;28;20231;-82
2023/07/26 00:24:25;;;;;;;1.50;0.63;;;14.10;99.90;;;;;;4960828;28;21132;-81
2023/07/26 00:26:51;;;;;;;0.93;0.80;;;14.00;99.90;;;;;;4963943;28;20276;-81
2023/07/26 00:29:16;;;;;;;1.30;1.20;;;14.00;99.90;;;;;;4961898;28;20224;-80
2023/07/26 00:31:43;;;;;;;1.30;1.00;;;14.10;99.90;;;;;;4962500;28;20236;-81
2023/07/26 00:34:08;;;;;;;0.77;0.50;;;14.10;99.90;;;;;;4961468;28;20213;-81
2023/07/26 00:36:34;;;;;;;0.70;0.70;;;14.10;99.90;;;;;;4962298;28;20227;-81
2023/07/26 00:39:00;;;;;;;0.40;0.40;;;14.10;99.90;;;;;;4966913;28;21089;-82
2023/07/26 00:41:26;;;;;;;2.67;1.20;;;14.00;99.90;;;;;;4961251;28;20233;-81
2023/07/26 00:43:52;;;;;;;2.70;1.17;;;14.00;99.90;;;;;;4962107;28;20220;-82
2023/07/26 00:46:18;;;;;;;1.80;0.97;;;13.90;99.90;;;;;;4960724;28;20240;-81
2023/07/26 00:48:43;;;;;;;1.40;0.97;;;13.80;99.90;;;;;;4961540;28;20231;-82
2023/07/26 00:51:10;;;;;;;1.10;0.97;;;13.80;99.90;;;;;;4962818;28;20224;-82
2023/07/26 00:53:37;;;;;;;2.00;1.07;;;13.80;99.90;;;;;;4963289;28;20197;-82
2023/07/26 00:56:03;;;;;;;1.00;0.83;;;13.80;99.90;;;;;;4961036;28;20704;-81
2023/07/26 00:58:29;;;;;;;0.60;0.60;;;13.80;99.90;;;;;;4961411;28;20221;-81
2023/07/26 01:00:55;;;;;;;5.00;0.83;;;13.80;99.90;;;;;;4962094;28;20631;-81
2023/07/26 01:03:21;;;;;;;0.83;0.57;;;13.80;99.90;;;;;;4960562;28;20193;-81
2023/07/26 01:05:53;;;;;;;0.97;0.90;;;13.80;99.90;;;;;;4962753;28;20197;-82
2023/07/26 01:08:49;;;;;;;5.23;1.40;;;13.90;99.90;;;;;;4961579;28;20294;-82
2023/07/26 01:11:24;;;;;;;1.93;1.07;;;13.90;99.90;;;;;;4962408;28;20248;-81
2023/07/26 01:14:06;;;;;;;3.87;1.13;;;13.90;99.90;;;;;;4962030;28;20215;-82
2023/07/26 01:16:32;;;;;;;1.37;0.70;;;13.90;99.90;;;;;;4963330;28;20246;-82
2023/07/26 01:18:58;;;;;;;1.27;0.70;;;13.80;99.90;;;;;;4961487;28;20271;-82
2023/07/26 01:21:24;;;;;;;0.97;0.97;;;13.80;99.90;;;;;;4961260;28;20193;-82
2023/07/26 01:23:49;;;;;;;0.60;0.60;;;13.70;99.90;;;;;;4960830;28;20276;-82
2023/07/26 01:26:15;;;;;;;1.00;0.47;;;13.70;99.90;;;;;;4962783;28;20228;-81
2023/07/26 01:28:41;;;;;;;0.70;0.70;;;13.60;99.90;;;;;;4960147;28;20224;-82
2023/07/26 01:31:09;;;;;;;1.60;1.07;;;13.60;99.90;;;;;;4962273;28;20240;-82
2023/07/26 01:33:36;;;;;;;1.43;0.90;;;13.70;99.90;;;;;;4960739;28;20225;-82
2023/07/26 01:36:04;;;;;;;0.70;0.70;;;13.70;99.90;;;;;;4962410;28;20219;-82
2023/07/26 01:38:30;;;;;;;1.50;1.13;;;13.60;99.90;;;;;;4962101;28;20856;-82
2023/07/26 01:40:57;;;;;;;1.57;1.10;;;13.70;99.90;;;;;;4961332;28;20228;-82
2023/07/26 01:43:25;;;;;;;3.80;1.27;;;13.70;99.90;;;;;;4960913;28;20259;-82
2023/07/26 01:45:50;;;;;;;1.77;0.87;;;13.60;99.90;;;;;;4953586;28;20297;-82
2023/07/26 01:48:16;;;;;;;1.23;1.10;;;13.60;99.90;;;;;;4943544;28;20197;-83
2023/07/26 01:50:42;;;;;;;1.10;0.80;;;13.60;99.90;;;;;;4943287;28;20221;-81
2023/07/26 01:53:07;;;;;;;1.10;1.00;;;13.60;99.90;;;;;;4927737;28;20225;-81
2023/07/26 01:55:33;;;;;;;0.70;0.63;;;13.60;99.90;;;;;;4943784;28;20228;-81
2023/07/26 01:57:59;;;;;;;2.00;0.80;;;13.50;99.90;;;;;;4944879;28;20320;-82
2023/07/26 02:00:25;;;;;;;1.43;1.07;;;13.50;99.90;;;;;;4940862;28;20590;-82
2023/07/26 02:02:50;;;;;;;3.83;0.70;;;13.50;99.90;;;;;;4944689;28;20678;-81
2023/07/26 02:05:16;;;;;;;0.50;0.50;;;13.50;99.90;;;;;;4938660;28;20694;-82
2023/07/26 02:07:42;;;;;;;3.93;1.10;;;13.50;99.90;;;;;;4935681;29;20222;-82
2023/07/26 02:10:08;;;;;;;2.23;1.00;;;13.40;99.90;;;;;;4937553;28;20248;-82
2023/07/26 02:12:34;;;;;;;0.80;0.80;;;13.40;99.90;;;;;;4944680;28;21023;-82
2023/07/26 02:15:00;;;;;;;1.73;0.90;;;13.50;99.90;;;;;;4944902;28;20593;-81
2023/07/26 02:17:25;;;;;;;1.23;1.00;;;13.60;99.90;;;;;;4942531;28;20571;-81
2023/07/26 02:19:51;;;;;;;2.53;0.60;;;13.60;99.90;;;;;;4929904;28;20255;-83
2023/07/26 02:22:17;;;;;;;1.33;1.13;;;13.60;99.90;;;;;;4944834;28;20240;-82
2023/07/26 02:24:42;;;;;;;1.10;0.90;;;13.60;99.90;;;;;;4946365;28;20632;-82
2023/07/26 02:27:08;;;;;;;1.50;1.13;;;13.60;99.90;;;;;;4943381;28;20232;-82
2023/07/26 02:29:34;;;;;;;0.40;0.40;;;13.60;99.90;;;;;;4946627;28;20207;-82
2023/07/26 02:32:00;;;;;;;0.73;0.73;;;13.70;99.90;;;;;;4944328;28;20232;-82
2023/07/26 02:34:26;;;;;;;2.67;0.57;;;13.80;99.90;;;;;;4945626;28;21120;-82
2023/07/26 02:36:51;;;;;;;5.10;1.73;;;13.90;99.90;;;;;;4949848;28;20248;-82
2023/07/26 02:39:18;;;;;;;3.07;1.40;;;13.90;99.90;;;;;;4946240;28;20201;-82
2023/07/26 02:41:44;;;;;;;1.67;0.87;;;13.90;99.90;;;;;;4946169;28;20284;-81
2023/07/26 02:44:09;;;;;;;3.77;1.73;;;13.90;99.90;;;;;;4944608;28;20615;-82
2023/07/26 02:46:35;;;;;;;1.20;0.77;;;13.80;99.90;;;;;;4960253;28;20636;-82
2023/07/26 02:49:01;;;;;;;1.90;0.77;;;13.80;99.90;;;;;;4963121;28;20238;-82
2023/07/26 02:51:26;;;;;;;2.07;1.00;;;13.70;99.90;;;;;;4963527;28;20224;-82
2023/07/26 02:53:52;;;;;;;2.37;1.50;;;13.70;99.90;;;;;;4963601;28;20641;-81
2023/07/26 02:56:18;;;;;;;1.70;0.70;;;13.60;99.90;;;;;;4967016;28;20338;-82
2023/07/26 02:58:43;;;;;;;0.50;0.50;;;13.50;99.90;;;;;;4973659;28;20224;-81
2023/07/26 03:01:09;;;;;;;0.80;0.67;;;13.40;99.90;;;;;;4963732;28;20236;-82
2023/07/26 03:03:35;;;;;;;1.00;0.73;;;13.40;99.90;;;;;;4962626;28;20239;-82
2023/07/26 03:06:01;;;;;;;1.93;1.07;;;13.30;99.90;;;;;;4948368;28;20191;-81
2023/07/26 03:08:26;;;;;;;1.40;0.60;;;13.30;99.90;;;;;;4963146;28;20332;-80
2023/07/26 03:10:52;;;;;;;2.57;1.10;;;13.30;99.90;;;;;;4948657;28;20229;-81
2023/07/26 03:13:18;;;;;;;2.10;1.37;;;13.20;99.90;;;;;;4949090;28;20597;-81
2023/07/26 03:15:45;;;;;;;1.30;1.17;;;13.20;99.90;;;;;;4968428;28;20213;-82
2023/07/26 03:18:11;;;;;;;2.97;1.00;;;13.20;99.90;;;;;;4963791;28;20197;-82
2023/07/26 03:20:36;;;;;;;3.27;1.00;;;13.20;99.90;;;;;;4962776;28;20201;-81
2023/07/26 03:23:02;;;;;;;0.67;0.60;;;13.20;99.90;;;;;;4964699;28;20216;-82
2023/07/26 03:25:28;;;;;;;1.53;0.77;;;13.10;99.90;;;;;;4966882;28;20228;-81
2023/07/26 03:27:55;;;;;;;1.90;0.60;;;13.00;99.90;;;;;;4963653;28;20232;-81
2023/07/26 03:30:20;;;;;;;0.87;0.63;;;13.00;99.90;;;;;;4946606;28;20686;-81
2023/07/26 03:32:46;;;;;;;1.50;0.87;;;13.00;99.90;;;;;;4965587;28;20197;-82
2023/07/26 03:35:12;;;;;;;1.03;0.93;;;13.00;99.90;;;;;;4963367;28;20598;-81
2023/07/26 03:37:38;;;;;;;4.07;1.33;;;13.10;99.90;;;;;;4962072;28;20838;-81
2023/07/26 03:40:04;;;;;;;1.43;0.97;;;13.10;99.90;;;;;;4962584;28;20704;-81
2023/07/26 03:42:30;;;;;;;1.00;1.00;;;13.10;99.90;;;;;;4962030;28;20232;-81
2023/07/26 03:44:56;;;;;;;0.87;0.63;;;13.10;99.90;;;;;;4965672;28;20192;-81
2023/07/26 03:47:22;;;;;;;1.80;0.60;;;13.10;99.90;;;;;;4961438;28;20255;-81
2023/07/26 03:49:47;;;;;;;1.77;1.43;;;13.20;99.90;;;;;;4948453;28;20744;-81
2023/07/26 03:52:13;;;;;;;2.10;1.17;;;13.20;99.90;;;;;;4946305;28;20237;-81
2023/07/26 03:54:39;;;;;;;3.60;0.93;;;13.20;99.90;;;;;;4962326;28;20230;-82
2023/07/26 03:57:07;;;;;;;0.90;0.70;;;13.20;99.90;;;;;;4946618;28;20677;-81
2023/07/26 03:59:32;;;;;;;0.70;0.70;;;13.20;99.90;;;;;;4962891;28;20304;-81
2023/07/26 04:01:58;;;;;;;1.10;1.10;;;13.20;99.90;;;;;;4964488;28;20780;-81
2023/07/26 04:04:24;;;;;;;1.17;0.70;;;13.20;99.90;;;;;;4932368;28;20224;-82
2023/07/26 04:06:49;;;;;;;0.40;0.40;;;13.30;99.90;;;;;;4961991;28;20224;-81
2023/07/26 04:09:15;;;;;;;0.67;0.67;;;13.30;99.90;;;;;;4946336;28;20211;-81
2023/07/26 04:11:41;;;;;;;0.73;0.40;;;13.40;99.90;;;;;;4961665;28;21159;-81
2023/07/26 04:14:07;;;;;;;1.30;1.00;;;13.50;99.90;;;;;;4962737;28;20595;-81
2023/07/26 04:16:32;;;;;;;1.13;0.97;;;13.60;99.90;;;;;;4961840;28;20585;-81
2023/07/26 04:18:58;;;;;;;0.73;0.73;;;13.70;99.90;;;;;;4961639;28;20220;-81
2023/07/26 04:21:24;;;;;;;2.20;0.60;;;13.80;99.90;;;;;;4948271;28;20232;-81
2023/07/26 04:23:50;;;;;;;0.50;0.50;;;13.80;99.90;;;;;;4946584;28;20208;-81
2023/07/26 04:26:15;;;;;;;1.70;0.67;;;14.00;99.90;;;;;;4964625;28;20228;-81
2023/07/26 04:28:41;;;;;;;0.60;0.50;;;14.10;99.90;;;;;;4963355;28;20232;-80
2023/07/26 04:31:07;;;;;;;0.73;0.73;;;14.20;99.90;;;;;;4962152;28;20307;-81
2023/07/26 04:33:33;;;;;;;1.10;0.70;;;14.40;99.90;;;;;;4960920;28;20228;-80
2023/07/26 04:35:58;;;;;;;4.57;1.07;;;14.60;99.90;;;;;;4962422;28;20491;-82
2023/07/26 04:38:25;;;;;;;0.73;0.73;;;14.70;99.90;;;;;;4961438;28;20970;-81
2023/07/26 04:40:51;;;;;;;0.73;0.70;;;14.80;99.90;;;;;;4965128;28;20247;-81
2023/07/26 04:43:20;;;;;;;0.70;0.70;;;14.60;99.90;;;;;;4965423;28;20886;-81
2023/07/26 04:45:50;;;;;;;1.60;0.80;;;14.50;99.90;;;;;;4964111;28;20312;-81
2023/07/26 04:48:17;;;;;;;2.73;1.20;;;14.40;99.90;;;;;;4963911;28;20204;-81
2023/07/26 04:50:45;;;;;;;1.43;1.03;;;14.40;99.90;;;;;;4964478;28;20221;-81
2023/07/26 04:53:10;;;;;;;1.77;1.23;;;14.30;99.90;;;;;;4963103;28;20224;-80
2023/07/26 04:55:50;;;;;;;3.03;0.93;;;14.20;99.90;;;;;;4961816;28;20710;-81
2023/07/26 04:58:16;;;;;;;1.00;0.67;;;14.20;99.90;;;;;;4963009;28;20222;-81
2023/07/26 05:00:42;;;;;;;0.87;0.67;;;14.00;99.90;;;;;;4961602;28;20311;-80
2023/07/26 05:03:09;;;;;;;6.63;1.30;;;14.00;99.90;;;;;;4946597;28;20263;-80
2023/07/26 05:05:36;;;;;;;1.53;0.93;;;14.00;99.90;;;;;;4946045;28;20556;-81
2023/07/26 05:08:02;;;;;;;4.27;1.27;;;14.00;99.90;;;;;;4969947;28;20247;-80
2023/07/26 05:10:29;;;;;;;2.27;0.63;;;14.00;99.90;;;;;;4962146;28;20237;-80
2023/07/26 05:12:58;;;;;;;1.80;1.00;;;14.10;99.90;;;;;;4962730;28;20212;-80
2023/07/26 05:15:25;;;;;;;1.63;1.07;;;14.20;99.90;;;;;;4954009;28;20180;-80
2023/07/26 05:17:51;;;;;;;1.10;0.90;;;14.20;99.90;;;;;;4962543;28;20272;-81
2023/07/26 05:20:17;;;;;;;2.20;1.10;;;14.20;99.90;;;;;;4945337;28;20626;-81
2023/07/26 05:22:43;;;;;;;0.97;0.90;;;14.20;99.90;;;;;;4945215;28;20622;-81
2023/07/26 05:25:09;;;;;;;2.67;1.37;;;14.10;99.90;;;;;;4945331;28;20666;-80
2023/07/26 05:27:35;;;;;;;1.63;1.10;;;14.10;99.90;;;;;;4944502;28;20563;-81
2023/07/26 05:30:01;;;;;;;2.90;1.10;;;14.10;99.90;;;;;;4964643;28;20590;-81
2023/07/26 05:32:27;;;;;;;0.83;0.83;;;14.10;99.90;;;;;;4960072;28;20220;-81
2023/07/26 05:34:55;;;;;;;0.57;0.57;;;14.10;99.90;;;;;;4961006;28;20582;-81
2023/07/26 05:37:22;;;;;;;1.07;0.90;;;14.20;99.90;;;;;;4960766;28;20311;-81
2023/07/26 05:39:48;;;;;;;0.60;0.60;;;14.30;99.90;;;;;;4946386;28;20229;-80
2023/07/26 05:42:14;;;;;;;0.80;0.80;;;14.40;99.90;;;;;;4964087;28;20220;-81
2023/07/26 05:44:40;;;;;;;0.70;0.60;;;14.60;99.90;;;;;;4960879;28;20273;-80
2023/07/26 05:47:06;;;;;;;1.23;0.90;;;15.30;99.90;;;;;;4966367;28;20573;-81
2023/07/26 05:49:31;;;;;;;0.80;0.80;;;15.70;99.90;;;;;;4944082;28;20325;-81
2023/07/26 05:51:59;;;;;;;0.70;0.53;;;15.90;99.90;;;;;;4960220;28;20228;-82
2023/07/26 05:54:25;;;;;;;4.90;1.30;;;16.50;99.90;;;;;;4960077;28;20192;-81
2023/07/26 05:56:51;;;;;;;0.80;0.50;;;16.70;99.90;;;;;;4963887;28;20195;-81
2023/07/26 05:59:17;;;;;;;0.67;0.67;;;17.00;99.90;;;;;;4960154;28;20236;-81
2023/07/26 06:01:42;;;;;;;0.87;0.87;;;17.60;99.90;;;;;;4962252;28;20217;-81
2023/07/26 06:04:08;;;;;;;1.43;0.90;;;17.90;99.90;;;;;;4960483;28;21009;-82
2023/07/26 06:06:34;;;;;;;1.33;0.97;;;19.30;99.90;;;;;;4963879;28;20775;-81
2023/07/26 06:09:00;;;;;;;0.87;0.73;;;20.40;99.90;;;;;;4976113;28;20738;-81
2023/07/26 06:11:26;;;;;;;1.23;1.00;;;20.10;99.90;;;;;;4945003;28;20228;-81
2023/07/26 06:13:53;;;;;;;1.60;0.63;;;19.60;99.90;;;;;;4959702;28;20228;-81
2023/07/26 06:16:19;;;;;;;1.03;0.80;;;18.50;99.90;;;;;;4959057;28;20826;-81
2023/07/26 06:18:45;;;;;;;0.70;0.70;;;17.80;99.90;;;;;;4944666;28;20224;-81
2023/07/26 06:21:11;;;;;;;1.10;0.80;;;17.00;99.90;;;;;;4944795;28;20192;-81
2023/07/26 06:23:38;;;;;;;0.90;0.83;;;16.50;99.90;;;;;;4960279;28;20212;-81
2023/07/26 06:26:03;;;;;;;1.47;0.80;;;16.30;99.90;;;;;;4959696;28;20223;-81
2023/07/26 06:28:30;;;;;;;1.10;0.77;;;16.10;99.90;;;;;;4960364;28;20240;-81
2023/07/26 06:30:57;;;;;;;0.77;0.77;;;16.00;99.90;;;;;;4960640;28;20251;-80
2023/07/26 06:33:22;;;;;;;0.80;0.80;;;16.00;99.90;;;;;;4958912;28;20192;-80
2023/07/26 06:35:48;;;;;;;1.03;0.73;;;16.00;99.90;;;;;;4960859;28;20198;-81
2023/07/26 06:38:14;;;;;;;1.90;1.00;;;16.10;99.90;;;;;;4959919;28;20226;-82
2023/07/26 06:40:40;;;;;;;4.67;1.10;;;16.00;99.90;;;;;;4961183;28;20303;-81
2023/07/26 06:43:06;;;;;;;6.30;1.20;;;16.60;99.90;;;;;;4961523;28;20229;-81
2023/07/26 06:45:32;;;;;;;2.67;2.33;;;19.10;99.90;;;;;;4959405;28;20236;-81
2023/07/26 06:47:58;;;;;;;0.87;0.83;;;22.60;99.90;;;;;;4960265;28;20312;-82
2023/07/26 06:50:24;;;;;;;1.17;0.60;;;23.80;99.90;;;;;;4945717;28;20240;-80
2023/07/26 06:52:50;;;;;;;2.03;0.80;;;24.00;99.90;;;;;;4959547;28;20224;-81
2023/07/26 06:55:15;;;;;;;0.80;0.80;;;25.70;99.90;;;;;;4963544;28;20223;-81
2023/07/26 06:57:41;;;;;;;3.67;1.17;;;25.10;99.90;;;;;;4947101;28;20755;-81
2023/07/26 07:00:12;;;;;;;2.67;1.17;;;24.90;99.90;;;;;;4960245;28;20182;-81
2023/07/26 07:02:39;;;;;;;1.50;0.83;;;26.00;99.90;;;;;;4959325;28;20331;-82
2023/07/26 07:05:06;;;;;;;1.02;0.70;;;27.80;99.90;;;;;;4961674;28;20633;-83
2023/07/26 07:07:31;;;;;;;1.33;0.90;;;27.40;99.90;;;;;;4961712;28;20221;-82
2023/07/26 07:09:57;;;;;;;0.63;0.63;;;26.40;99.90;;;;;;4942144;28;20260;-82
2023/07/26 07:12:23;;;;;;;0.90;0.77;;;25.90;99.90;;;;;;4943761;28;21146;-83
2023/07/26 07:14:49;;;;;;;0.70;0.70;;;26.10;99.90;;;;;;4961301;28;20496;-83
2023/07/26 07:17:14;;;;;;;1.75;1.23;;;25.00;99.90;;;;;;4967619;28;20639;-82
2023/07/26 07:19:40;;;;;;;1.80;0.95;;;23.30;99.90;;;;;;4963485;28;20235;-82
2023/07/26 07:22:06;;;;;;;1.23;0.70;;;22.00;99.90;;;;;;4962652;28;20607;-82
2023/07/26 07:24:34;;;;;;;0.83;0.60;;;20.50;99.90;;;;;;4962434;28;21084;-82
2023/07/26 07:27:00;;;;;;;2.17;1.00;;;20.00;99.90;;;;;;4964904;28;20199;-82
2023/07/26 07:29:25;;;;;;;0.80;0.80;;;19.30;99.90;;;;;;4963123;28;20240;-82
2023/07/26 07:31:51;;;;;;;2.97;1.00;;;19.10;99.90;;;;;;4962868;28;20232;-82
2023/07/26 07:34:17;;;;;;;1.37;1.20;;;19.00;99.90;;;;;;4963614;28;20260;-82
2023/07/26 07:36:43;;;;;;;1.20;1.10;;;18.80;99.90;;;;;;4946475;28;20250;-83
2023/07/26 07:39:09;;;;;;;4.03;1.47;;;18.60;99.90;;;;;;4962173;28;20231;-81
2023/07/26 07:41:36;;;;;;;1.60;1.27;;;18.40;99.90;;;;;;4949314;28;20185;-81
2023/07/26 07:44:02;;;;;;;1.97;0.80;;;18.20;99.90;;;;;;4947339;28;20286;-82
2023/07/26 07:46:28;;;;;;;3.40;0.90;;;17.90;99.90;;;;;;4946064;28;20721;-81
2023/07/26 07:48:56;;;;;;;0.50;0.50;;;17.40;99.90;;;;;;4962311;28;20331;-80
2023/07/26 07:51:22;;;;;;;1.13;0.70;;;17.40;99.90;;;;;;4947661;28;20232;-81
2023/07/26 07:53:48;;;;;;;1.60;1.07;;;17.40;99.90;;;;;;4962094;28;20659;-81
2023/07/26 07:56:14;;;;;;;1.53;0.90;;;19.00;99.90;;;;;;4962769;28;20267;-81
2023/07/26 07:58:40;;;;;;;1.23;1.00;;;20.80;99.90;;;;;;4951725;28;20359;-81
2023/07/26 08:01:05;;;;;;;1.97;1.27;;;22.70;99.90;;;;;;4962032;28;20649;-81
2023/07/26 08:03:31;;;;;;;0.93;0.93;;;24.20;99.90;;;;;;4965704;28;20255;-81
2023/07/26 08:05:57;;;;;;;2.20;1.40;;;25.40;99.90;;;;;;4964192;28;20196;-82
2023/07/26 08:08:23;;;;;;;0.73;0.70;;;26.30;99.90;;;;;;4963247;28;20220;-81
2023/07/26 08:10:49;;;;;;;1.63;1.20;;;26.60;99.90;;;;;;4963206;28;20757;-82
2023/07/26 08:13:15;;;;;;;0.98;0.75;;;26.40;99.90;;;;;;4963869;28;20642;-84
2023/07/26 08:15:41;;;;;;;2.72;1.20;;;26.80;99.90;;;;;;4944352;28;20319;-81
2023/07/26 08:18:07;;;;;;;2.58;0.98;;;28.10;99.90;;;;;;4963983;28;20303;-81
2023/07/26 08:20:34;;;;;;;3.63;1.25;;;28.30;99.90;;;;;;4961861;28;20237;-82
2023/07/26 08:23:00;;;;;;;2.80;1.10;;;29.10;99.90;;;;;;4961181;28;20231;-82
2023/07/26 08:25:26;;;;;;;1.38;0.88;;;29.40;99.90;;;;;;4961061;28;20311;-83
2023/07/26 08:27:52;;;;;;;2.10;1.38;;;28.80;99.90;;;;;;4963928;28;20227;-82
2023/07/26 08:30:18;;;;;;;1.05;0.80;;;28.00;99.90;;;;;;4947640;28;20252;-83
2023/07/26 08:32:43;;;;;;;3.47;1.10;;;27.90;99.90;;;;;;4961636;28;20189;-82
2023/07/26 08:35:09;;;;;;;2.55;1.55;;;26.70;99.90;;;;;;4963382;28;20271;-83
2023/07/26 08:37:35;;;;;;;3.40;1.27;;;25.60;99.90;;;;;;4945426;28;20228;-84
2023/07/26 08:40:01;;;;;;;2.92;1.20;;;26.30;99.90;;;;;;4960484;28;20232;-84
2023/07/26 08:42:26;;;;;;;3.60;1.73;;;26.80;99.90;;;;;;4961780;28;20197;-83
2023/07/26 08:44:53;;;;;;;4.40;1.05;;;26.70;99.90;;;;;;4961879;28;20189;-83
2023/07/26 08:47:22;;;;;;;2.05;1.45;;;27.40;99.90;;;;;;4960500;28;20217;-83
2023/07/26 08:49:49;;;;;;;1.40;0.98;;;27.10;99.90;;;;;;4962850;28;20240;-83
2023/07/26 08:52:18;;;;;;;2.88;1.23;;;24.70;99.90;;;;;;4963611;28;20656;-83
2023/07/26 08:54:47;;;;;;;2.33;1.30;;;22.70;99.90;;;;;;4959797;28;20780;-82
2023/07/26 08:57:15;;;;;;;1.88;1.50;;;22.10;99.90;;;;;;4963144;28;20714;-83
2023/07/26 08:59:40;;;;;;;1.77;1.02;;;21.80;99.90;;;;;;4961948;28;20205;-82
2023/07/26 09:02:09;;;;;;;1.60;1.40;;;21.00;99.90;;;;;;4960027;28;20232;-83
2023/07/26 09:04:35;;;;;;;1.80;1.40;;;20.60;99.90;;;;;;4961486;28;20695;-82
2023/07/26 09:07:05;;;;;;;2.55;1.40;;;20.40;99.90;;;;;;4961772;28;20228;-82
2023/07/26 09:09:32;;;;;;;2.63;1.67;;;20.70;99.90;;;;;;4959783;28;20232;-81
2023/07/26 09:11:59;;;;;;;5.40;1.50;;;20.70;99.90;;;;;;4961626;28;20298;-83
2023/07/26 09:14:27;;;;;;;3.93;1.13;;;20.60;99.90;;;;;;4943480;28;20712;-82
2023/07/26 09:16:57;;;;;;;2.10;1.47;;;20.60;99.90;;;;;;4962701;28;20794;-83
2023/07/26 09:19:30;;;;;;;1.27;1.13;;;20.50;99.90;;;;;;4953380;28;20312;-83
2023/07/26 09:22:00;;;;;;;2.27;1.20;;;19.60;99.90;;;;;;4959725;28;20307;-83
2023/07/26 09:24:36;;;;;;;3.87;1.70;;;20.20;99.90;;;;;;4958861;28;20193;-81
2023/07/26 09:27:03;;;;;;;1.03;1.00;;;20.80;99.90;;;;;;4957898;28;20184;-82
2023/07/26 09:29:29;;;;;;;3.73;1.00;;;21.40;99.90;;;;;;4962434;28;20241;-81
2023/07/26 09:31:55;;;;;;;1.87;1.30;;;20.70;99.90;;;;;;4959833;28;20236;-82
2023/07/26 09:34:22;;;;;;;0.93;0.80;;;20.00;99.90;;;;;;4964103;28;20228;-81
2023/07/26 09:36:52;;;;;;;1.13;1.00;;;19.90;99.90;;;;;;4960472;28;20339;-82
2023/07/26 09:39:20;;;;;;;0.83;0.70;;;19.60;99.90;;;;;;4961986;28;20189;-82
2023/07/26 09:41:46;;;;;;;2.17;0.80;;;19.30;99.90;;;;;;4963884;28;20197;-81
2023/07/26 09:44:17;;;;;;;2.33;0.90;;;19.00;99.90;;;;;;4962446;28;20368;-82
2023/07/26 09:46:53;;;;;;;1.37;1.00;;;18.80;99.90;;;;;;4943120;28;20237;-81
2023/07/26 09:49:22;;;;;;;1.30;0.93;;;18.60;99.90;;;;;;4940322;29;20873;-82
2023/07/26 09:51:53;;;;;;;1.00;0.90;;;18.30;99.90;;;;;;4942744;28;20229;-83
2023/07/26 09:54:20;;;;;;;1.10;1.00;;;18.20;99.90;;;;;;4940716;28;20603;-84
2023/07/26 09:56:47;;;;;;;1.10;1.00;;;18.40;99.90;;;;;;4942733;28;20678;-82
2023/07/26 09:59:14;;;;;;;2.70;1.17;;;18.30;99.90;;;;;;4940859;29;20213;-82
2023/07/26 10:01:45;;;;;;;1.10;0.90;;;18.00;99.90;;;;;;4940634;29;20592;-83
2023/07/26 10:04:40;;;;;;;0.50;0.47;;;17.80;99.90;;;;;;4940208;29;20777;-82
2023/07/26 10:07:11;;;;;;;2.00;0.40;;;16.70;99.90;;;;;;4924807;29;20228;-81
2023/07/26 10:09:43;;;;;;;0.80;0.80;;;16.20;99.90;;;;;;4941894;29;20221;-82
2023/07/26 10:12:09;;;;;;;4.07;0.70;;;16.00;99.90;;;;;;4939600;28;20209;-81
2023/07/26 10:14:36;;;;;;;1.00;0.80;;;16.10;99.90;;;;;;4942078;28;20760;-82
2023/07/26 10:17:04;;;;;;;2.53;0.53;;;16.40;99.90;;;;;;4939695;29;20235;-83
2023/07/26 10:19:31;;;;;;;0.60;0.60;;;16.80;99.90;;;;;;4941896;29;20221;-83
2023/07/26 10:21:57;;;;;;;1.20;0.77;;;17.20;99.90;;;;;;4942418;29;20268;-82
2023/07/26 10:24:25;;;;;;;0.67;0.67;;;17.50;99.90;;;;;;4941554;29;20289;-82
2023/07/26 10:26:52;;;;;;;2.40;0.60;;;17.90;99.90;;;;;;4942228;29;20185;-82
2023/07/26 10:29:19;;;;;;;4.60;0.60;;;18.50;99.90;;;;;;4942807;29;20553;-82
2023/07/26 10:31:46;;;;;;;3.93;0.80;;;18.00;99.90;;;;;;4941183;29;20316;-82
2023/07/26 10:34:21;;;;;;;3.03;0.83;;;18.10;99.90;;;;;;4940079;29;20217;-82
2023/07/26 10:36:47;;;;;;;1.53;0.87;;;18.50;99.90;;;;;;4925065;29;20255;-81
2023/07/26 10:39:14;;;;;;;0.80;0.80;;;19.00;99.90;;;;;;4939456;29;20284;-83
2023/07/26 10:41:50;;;;;;;0.70;0.70;;;19.80;99.90;;;;;;4941793;29;20198;-82
2023/07/26 10:44:16;;;;;;;0.73;0.73;;;20.10;99.90;;;;;;4940813;29;20237;-83
2023/07/26 10:47:15;;;;;;;4.00;1.63;;;19.20;99.90;;;;;;4951196;28;20320;-82
2023/07/26 10:49:48;;;;;;;0.63;0.63;;;19.40;99.90;;;;;;4953627;28;21183;-83
2023/07/26 10:52:15;;;;;;;0.63;0.63;;;19.40;99.90;;;;;;4967143;28;20317;-82
2023/07/26 10:54:42;;;;;;;1.40;1.30;;;19.70;99.90;;;;;;4963477;28;20238;-83
2023/07/26 10:57:27;;;;;;;2.63;0.63;;;20.00;99.90;;;;;;4947307;28;20299;-81
2023/07/26 11:00:11;;;;;;;1.83;1.20;;;19.60;99.90;;;;;;4964298;28;20188;-83
2023/07/26 11:02:51;;;;;;;4.10;0.93;;;20.20;99.90;;;;;;4951592;28;20224;-84
2023/07/26 11:05:23;;;;;;;0.70;0.70;;;20.00;99.90;;;;;;4947421;28;20223;-82
2023/07/26 11:08:06;;;;;;;3.23;1.27;;;19.60;99.90;;;;;;4963828;28;20228;-82
2023/07/26 11:10:49;;;;;;;3.50;1.10;;;19.30;99.90;;;;;;4964774;28;20319;-82
2023/07/26 11:13:18;;;;;;;2.73;0.97;;;18.80;99.90;;;;;;4966608;28;20224;-83
2023/07/26 11:15:46;;;;;;;1.93;0.90;;;18.90;99.90;;;;;;4967083;28;20220;-82
2023/07/26 11:18:13;;;;;;;6.57;1.20;;;19.00;99.90;;;;;;4961507;28;20220;-83
2023/07/26 11:20:46;;;;;;;3.27;1.20;;;19.50;99.90;;;;;;4965955;28;20609;-82
2023/07/26 11:23:26;;;;;;;1.00;0.80;;;19.60;99.90;;;;;;4964527;28;21172;-82
2023/07/26 11:25:57;;;;;;;2.37;1.00;;;19.40;99.90;;;;;;4963772;28;20240;-82
2023/07/26 11:28:25;;;;;;;1.10;0.90;;;19.30;99.90;;;;;;4965271;28;20377;-82
2023/07/26 11:30:54;;;;;;;0.80;0.80;;;19.60;99.90;;;;;;4966541;28;20287;-83
2023/07/26 11:33:29;;;;;;;1.67;0.97;;;19.80;99.90;;;;;;4948527;28;20663;-83
2023/07/26 11:35:54;;;;;;;1.43;1.23;;;19.80;99.90;;;;;;4968504;28;20664;-83
2023/07/26 11:38:20;;;;;;;1.30;1.20;;;20.10;99.90;;;;;;4966490;28;20224;-83
2023/07/26 11:40:46;;;;;;;1.60;1.03;;;20.30;99.90;;;;;;4963173;28;20228;-82
2023/07/26 11:43:12;;;;;;;0.93;0.70;;;20.50;99.90;;;;;;4965052;28;20220;-82
2023/07/26 11:45:41;;;;;;;1.47;1.17;;;20.80;99.90;;;;;;4964682;28;20224;-83
2023/07/26 11:48:10;;;;;;;1.07;0.90;;;21.20;99.90;;;;;;4963679;28;20205;-82
2023/07/26 11:50:39;;;;;;;1.03;0.87;;;21.10;99.90;;;;;;4965271;28;20244;-83
2023/07/26 11:53:12;;;;;;;1.17;1.00;;;20.80;99.90;;;;;;4966472;28;20221;-83
2023/07/26 11:55:39;;;;;;;1.70;0.90;;;20.90;99.90;;;;;;4964617;28;20308;-83
2023/07/26 11:58:08;;;;;;;1.70;1.03;;;20.10;99.90;;;;;;4964641;28;20220;-83
2023/07/26 12:00:43;;;;;;;0.60;0.60;;;20.00;99.90;;;;;;4966009;28;20597;-82
2023/07/26 12:03:09;;;;;;;4.20;0.80;;;19.80;99.90;;;;;;4963504;28;20191;-81
2023/07/26 12:05:35;;;;;;;1.47;0.60;;;19.60;99.90;;;;;;4947106;28;21265;-82
2023/07/26 12:08:05;;;;;;;1.43;1.03;;;19.60;99.90;;;;;;4968074;28;20251;-82
2023/07/26 12:10:35;;;;;;;0.70;0.70;;;19.50;99.90;;;;;;4962214;28;20244;-83
2023/07/26 12:13:07;;;;;;;1.27;1.03;;;19.60;99.90;;;;;;4963049;28;21121;-83
2023/07/26 12:15:53;;;;;;;3.13;1.13;;;20.30;99.90;;;;;;4970808;28;20278;-82
2023/07/26 12:18:20;;;;;;;1.27;1.03;;;20.80;99.90;;;;;;4966032;28;20220;-82
2023/07/26 12:21:08;;;;;;;9.63;0.83;;;20.50;99.90;;;;;;4946791;28;20221;-82
2023/07/26 12:23:54;;;;;;;1.03;0.93;;;20.10;99.90;;;;;;4947654;28;20767;-83
2023/07/26 12:26:31;;;;;;;2.30;1.40;;;20.20;99.90;;;;;;4941724;28;20225;-83
2023/07/26 12:28:58;;;;;;;3.00;1.10;;;20.20;99.90;;;;;;4963791;28;20216;-83
2023/07/26 12:31:27;;;;;;;1.40;1.00;;;20.00;99.90;;;;;;4965019;28;20256;-82
2023/07/26 12:33:56;;;;;;;0.90;0.90;;;20.00;99.90;;;;;;4961309;28;20220;-84
2023/07/26 12:36:28;;;;;;;1.40;0.97;;;20.10;99.90;;;;;;4963223;28;20311;-82
2023/07/26 12:38:54;;;;;;;1.80;1.10;;;20.00;99.90;;;;;;4948961;28;20184;-83
2023/07/26 12:41:22;;;;;;;0.50;0.50;;;20.10;99.90;;;;;;4960524;28;20232;-83
2023/07/26 12:43:53;;;;;;;0.97;0.93;;;20.00;99.90;;;;;;4965399;28;20221;-82
2023/07/26 12:46:19;;;;;;;1.03;0.70;;;20.10;99.90;;;;;;4965429;28;20244;-82
2023/07/26 12:48:44;;;;;;;1.50;1.40;;;20.00;99.90;;;;;;4961869;28;20235;-82